createdAt,value
2024-02-19T00:02:51.230Z,10.83
2024-02-19T00:05:54.340Z,10.00
2024-02-19T00:08:57.374Z,10.60
2024-02-19T00:12:00.613Z,10.90
2024-02-19T00:15:07.068Z,10.47
2024-02-19T00:18:10.272Z,10.93
2024-02-19T00:21:13.782Z,10.80
2024-02-19T00:24:16.847Z,9.73
2024-02-19T00:27:19.923Z,9.77
2024-02-19T00:30:24.503Z,10.73
2024-02-19T00:33:27.674Z,10.43
2024-02-19T00:36:30.732Z,10.27
2024-02-19T00:39:33.791Z,10.77
2024-02-19T00:42:37.673Z,10.47
2024-02-19T00:45:42.232Z,10.10
2024-02-19T00:48:45.373Z,10.70
2024-02-19T00:51:48.559Z,9.73
2024-02-19T00:54:51.655Z,9.67
2024-02-19T00:57:54.811Z,9.83
2024-02-19T01:00:59.772Z,9.00
2024-02-19T01:04:03.141Z,9.30
2024-02-19T01:07:06.257Z,9.43
2024-02-19T01:10:10.870Z,9.10
2024-02-19T01:13:14.291Z,9.13
2024-02-19T01:16:19.090Z,8.63
2024-02-19T01:19:22.482Z,8.27
2024-02-19T01:22:28.545Z,8.33
2024-02-19T01:25:31.619Z,7.70
2024-02-19T01:28:34.733Z,7.63
2024-02-19T01:31:39.122Z,8.50
2024-02-19T01:34:42.428Z,7.53
2024-02-19T01:37:45.561Z,7.30
2024-02-19T01:40:48.647Z,7.40
2024-02-19T01:43:52.080Z,7.20
2024-02-19T01:46:57.355Z,7.30
2024-02-19T01:50:00.588Z,6.80
2024-02-19T01:53:06.150Z,6.57
2024-02-19T01:56:09.386Z,6.10
2024-02-19T01:59:14.040Z,6.93
2024-02-19T02:02:19.453Z,6.50
2024-02-19T02:05:22.695Z,7.17
2024-02-19T02:08:26.178Z,6.50
2024-02-19T02:11:29.510Z,6.63
2024-02-19T02:14:32.748Z,6.23
2024-02-19T02:17:37.240Z,6.10
2024-02-19T02:20:40.715Z,5.97
2024-02-19T02:23:43.813Z,6.30
2024-02-19T02:26:48.229Z,5.90
2024-02-19T02:29:51.326Z,5.87
2024-02-19T02:32:57.124Z,5.97
2024-02-19T02:36:00.856Z,6.47
2024-02-19T02:39:03.980Z,5.73
2024-02-19T02:42:08.900Z,6.40
2024-02-19T02:45:12.430Z,6.67
2024-02-19T02:48:15.827Z,6.10
2024-02-19T02:51:18.988Z,6.17
2024-02-19T02:54:22.114Z,5.90
2024-02-19T02:57:26.634Z,6.00
2024-02-19T03:00:29.707Z,6.23
2024-02-19T03:03:37.014Z,5.80
2024-02-19T03:06:40.272Z,5.97
2024-02-19T03:09:43.345Z,6.10
2024-02-19T03:12:47.892Z,6.07
2024-02-19T03:15:51.121Z,6.13
2024-02-19T03:18:55.412Z,6.10
2024-02-19T03:21:58.649Z,6.17
2024-02-19T03:25:01.946Z,5.87
2024-02-19T03:28:07.041Z,6.10
2024-02-19T03:31:10.171Z,6.30
2024-02-19T03:34:13.445Z,5.90
2024-02-19T03:37:18.012Z,6.47
2024-02-19T03:40:21.271Z,6.23
2024-02-19T03:43:26.896Z,6.40
2024-02-19T03:46:30.070Z,6.37
2024-02-19T03:49:33.210Z,6.70
2024-02-19T03:52:36.587Z,6.20
2024-02-19T03:55:39.911Z,6.00
2024-02-19T03:58:44.404Z,5.37
2024-02-19T04:01:47.521Z,6.00
2024-02-19T04:04:50.741Z,5.20
2024-02-19T04:07:54.189Z,5.03
2024-02-19T04:10:57.267Z,4.87
2024-02-19T04:14:01.847Z,4.70
2024-02-19T04:17:06.931Z,4.87
2024-02-19T04:20:11.016Z,4.30
2024-02-19T04:23:14.100Z,4.20
2024-02-19T04:26:17.205Z,3.90
2024-02-19T04:29:21.761Z,4.00
2024-02-19T04:32:25.087Z,4.10
2024-02-19T04:35:28.136Z,4.00
2024-02-19T04:38:31.198Z,4.07
2024-02-19T04:41:34.481Z,4.00
2024-02-19T04:44:40.238Z,3.93
2024-02-19T04:47:43.299Z,4.10
2024-02-19T04:50:46.550Z,3.53
2024-02-19T04:53:49.696Z,3.57
2024-02-19T04:56:53.976Z,3.43
2024-02-19T04:59:58.397Z,3.10
2024-02-19T05:03:01.546Z,3.00
2024-02-19T05:06:04.789Z,3.40
2024-02-19T05:09:09.024Z,3.30
2024-02-19T05:12:12.102Z,3.57
2024-02-19T05:15:17.086Z,3.50
2024-02-19T05:18:20.432Z,3.50
2024-02-19T05:21:23.789Z,3.63
2024-02-19T05:24:26.887Z,3.47
2024-02-19T05:27:29.995Z,4.10
2024-02-19T05:30:34.532Z,3.80
2024-02-19T05:33:38.121Z,4.60
2024-02-19T05:36:41.317Z,4.13
2024-02-19T05:39:44.777Z,4.40
2024-02-19T05:42:48.333Z,4.30
2024-02-19T05:45:54.207Z,4.33
2024-02-19T05:48:57.558Z,4.10
2024-02-19T05:52:00.764Z,4.20
2024-02-19T05:55:05.199Z,4.40
2024-02-19T05:58:08.328Z,4.70
2024-02-19T06:01:13.907Z,4.57
2024-02-19T06:04:17.309Z,4.17
2024-02-19T06:07:20.465Z,3.93
2024-02-19T06:10:23.633Z,3.80
2024-02-19T06:13:27.060Z,3.67
2024-02-19T06:16:31.553Z,3.23
2024-02-19T06:19:34.830Z,3.10
2024-02-19T06:22:37.928Z,2.70
2024-02-19T06:25:41.031Z,3.00
2024-02-19T06:28:44.093Z,2.70
2024-02-19T06:31:51.128Z,2.40
2024-02-19T06:34:54.249Z,2.70
2024-02-19T06:37:57.673Z,2.77
2024-02-19T06:41:00.795Z,3.00
2024-02-19T06:44:04.269Z,3.00
2024-02-19T06:47:08.743Z,2.80
2024-02-19T06:50:12.312Z,2.90
2024-02-19T06:53:15.335Z,2.80
2024-02-19T06:56:18.445Z,2.90
2024-02-19T06:59:21.525Z,3.00
2024-02-19T07:02:26.382Z,2.90
2024-02-19T07:05:29.603Z,3.00
2024-02-19T07:08:32.840Z,3.10
2024-02-19T07:11:39.422Z,3.33
2024-02-19T07:14:43.041Z,3.10
2024-02-19T07:17:47.488Z,3.73
2024-02-19T07:20:50.582Z,3.80
2024-02-19T07:23:53.653Z,3.50
2024-02-19T07:26:58.540Z,3.20
2024-02-19T07:30:01.756Z,3.30
2024-02-19T07:33:06.816Z,2.83
2024-02-19T07:36:10.279Z,2.90
2024-02-19T07:39:13.488Z,2.60
2024-02-19T07:42:16.524Z,2.70
2024-02-19T07:45:20.582Z,2.70
2024-02-19T07:48:25.102Z,2.47
2024-02-19T07:51:28.360Z,2.73
2024-02-19T07:54:31.514Z,2.90
2024-02-19T07:57:34.590Z,2.70
2024-02-19T08:00:38.598Z,2.50
2024-02-19T08:03:43.776Z,2.50
2024-02-19T08:06:47.415Z,2.60
2024-02-19T08:09:50.957Z,2.70
2024-02-19T08:12:54.525Z,2.53
2024-02-19T08:15:57.767Z,2.40
2024-02-19T08:19:02.570Z,2.50
2024-02-19T08:22:06.303Z,2.60
2024-02-19T08:25:09.401Z,2.40
2024-02-19T08:28:12.581Z,2.40
2024-02-19T08:31:15.866Z,2.47
2024-02-19T08:34:20.803Z,2.50
2024-02-19T08:37:23.990Z,2.53
2024-02-19T08:40:27.540Z,2.60
2024-02-19T08:43:33.797Z,2.30
2024-02-19T08:46:37.015Z,2.47
2024-02-19T08:49:42.957Z,2.40
2024-02-19T08:52:46.089Z,2.70
2024-02-19T08:55:49.162Z,2.50
2024-02-19T08:58:52.235Z,2.83
2024-02-19T09:01:55.699Z,2.60
2024-02-19T09:05:01.365Z,2.67
2024-02-19T09:08:05.011Z,2.50
2024-02-19T09:11:08.093Z,2.63
2024-02-19T09:14:11.233Z,2.70
2024-02-19T09:17:15.650Z,2.53
2024-02-19T09:20:20.155Z,2.70
2024-02-19T09:23:23.449Z,2.40
2024-02-19T09:26:26.497Z,2.60
2024-02-19T09:29:34.898Z,2.70
2024-02-19T09:32:39.177Z,2.80
2024-02-19T09:35:43.634Z,3.13
2024-02-19T09:38:46.938Z,2.93
2024-02-19T09:41:50.110Z,2.97
2024-02-19T09:44:55.187Z,2.93
2024-02-19T09:48:02.463Z,2.90
2024-02-19T09:51:10.548Z,2.80
2024-02-19T09:54:16.734Z,2.97
2024-02-19T09:57:21.109Z,3.10
2024-02-19T10:00:24.645Z,3.20
2024-02-19T10:03:28.118Z,3.70
2024-02-19T10:06:37.202Z,3.90
2024-02-19T10:09:41.008Z,4.17
2024-02-19T10:12:44.716Z,4.47
2024-02-19T10:15:48.070Z,4.43
2024-02-19T10:18:53.904Z,4.30
2024-02-19T10:21:59.786Z,4.03
2024-02-19T10:25:05.174Z,4.20
2024-02-19T10:28:10.908Z,3.93
2024-02-19T10:31:15.021Z,3.70
2024-02-19T10:34:18.342Z,3.90
2024-02-19T10:37:23.021Z,3.73
2024-02-19T10:40:26.809Z,3.50
2024-02-19T10:43:30.291Z,3.80
2024-02-19T10:46:34.406Z,3.30
2024-02-19T10:49:37.662Z,3.50
2024-02-19T10:52:43.027Z,3.50
2024-02-19T10:55:53.734Z,3.50
2024-02-19T10:59:00.766Z,3.00
2024-02-19T11:02:09.595Z,3.30
2024-02-19T11:05:14.015Z,3.00
2024-02-19T11:08:23.055Z,2.83
2024-02-19T11:11:26.297Z,2.80
2024-02-19T11:14:32.095Z,3.00
2024-02-19T11:17:35.455Z,2.77
2024-02-19T11:20:39.053Z,2.77
2024-02-19T11:23:43.627Z,2.63
2024-02-19T11:26:46.905Z,2.60
2024-02-19T11:29:56.200Z,2.50
2024-02-19T11:33:03.518Z,2.20
2024-02-19T11:36:07.169Z,2.53
2024-02-19T11:39:12.107Z,2.30
2024-02-19T11:42:17.565Z,2.53
2024-02-19T11:45:21.978Z,2.27
2024-02-19T11:48:25.241Z,2.60
2024-02-19T11:51:28.448Z,2.70
2024-02-19T11:54:34.822Z,2.60
2024-02-19T11:57:37.936Z,2.63
2024-02-19T12:00:41.006Z,2.50
2024-02-19T12:03:44.141Z,2.80
2024-02-19T12:06:47.496Z,2.70
2024-02-19T12:09:52.076Z,2.80
2024-02-19T12:12:56.766Z,2.70
2024-02-19T12:16:00.155Z,2.90
2024-02-19T12:19:03.415Z,2.80
2024-02-19T12:22:07.646Z,3.00
2024-02-19T12:25:13.655Z,3.23
2024-02-19T12:28:17.371Z,3.07
2024-02-19T12:31:21.073Z,2.87
2024-02-19T12:34:24.759Z,2.67
2024-02-19T12:37:28.027Z,2.80
2024-02-19T12:40:32.648Z,2.90
2024-02-19T12:43:36.317Z,3.23
2024-02-19T12:46:39.443Z,2.60
2024-02-19T12:49:42.788Z,2.50
2024-02-19T12:52:46.307Z,2.67
2024-02-19T12:55:50.681Z,2.57
2024-02-19T12:58:53.884Z,2.60
2024-02-19T13:01:57.266Z,2.40
2024-02-19T13:05:00.522Z,2.50
2024-02-19T13:08:03.828Z,2.50
2024-02-19T13:11:08.902Z,2.70
2024-02-19T13:14:12.016Z,2.80
2024-02-19T13:17:22.697Z,2.73
2024-02-19T13:20:29.172Z,3.00
2024-02-19T13:23:32.280Z,2.73
2024-02-19T13:26:36.790Z,3.10
2024-02-19T13:29:39.822Z,3.10
2024-02-19T13:32:47.755Z,3.00
2024-02-19T13:35:51.130Z,3.17
2024-02-19T13:38:54.159Z,3.10
2024-02-19T13:41:58.757Z,3.10
2024-02-19T13:45:01.965Z,3.20
2024-02-19T13:48:07.064Z,3.50
2024-02-19T13:51:10.223Z,2.77
2024-02-19T13:54:14.006Z,3.20
2024-02-19T13:57:18.563Z,2.87
2024-02-19T14:00:22.159Z,2.90
2024-02-19T14:03:25.730Z,3.30
2024-02-19T14:06:29.659Z,2.80
2024-02-19T14:09:32.819Z,2.67
2024-02-19T14:12:37.359Z,2.80
2024-02-19T14:15:40.846Z,2.50
2024-02-19T14:18:43.973Z,2.50
2024-02-19T14:21:48.765Z,2.60
2024-02-19T14:24:52.744Z,2.80
2024-02-19T14:27:57.236Z,2.80
2024-02-19T14:31:00.356Z,2.63
2024-02-19T14:34:04.587Z,2.70
2024-02-19T14:37:08.024Z,2.73
2024-02-19T14:40:14.816Z,2.80
2024-02-19T14:43:19.679Z,2.80
2024-02-19T14:46:23.385Z,2.90
2024-02-19T14:49:26.651Z,2.80
2024-02-19T14:52:29.901Z,2.60
2024-02-19T14:55:32.995Z,2.90
2024-02-19T14:58:37.527Z,2.90
2024-02-19T15:01:40.709Z,2.83
2024-02-19T15:04:43.938Z,2.80
2024-02-19T15:07:54.860Z,2.80
2024-02-19T15:10:58.692Z,3.07
2024-02-19T15:14:03.473Z,2.50
2024-02-19T15:17:07.552Z,2.77
2024-02-19T15:20:12.050Z,2.50
2024-02-19T15:23:15.429Z,2.57
2024-02-19T15:26:18.525Z,2.47
2024-02-19T15:29:24.433Z,2.80
2024-02-19T15:32:28.032Z,2.90
2024-02-19T15:35:31.339Z,2.93
2024-02-19T15:38:34.469Z,2.90
2024-02-19T15:41:39.114Z,2.60
2024-02-19T15:44:44.089Z,2.80
2024-02-19T15:47:47.247Z,3.20
2024-02-19T15:50:50.520Z,2.90
2024-02-19T15:53:54.122Z,3.00
2024-02-19T15:56:57.191Z,3.40
2024-02-19T16:00:01.615Z,3.10
2024-02-19T16:03:05.023Z,2.60
2024-02-19T16:06:08.289Z,2.80
2024-02-19T16:09:12.307Z,2.60
2024-02-19T16:12:15.556Z,2.70
2024-02-19T16:15:20.485Z,2.93
2024-02-19T16:18:23.682Z,2.83
2024-02-19T16:21:26.753Z,2.67
2024-02-19T16:24:34.662Z,2.70
2024-02-19T16:27:37.956Z,2.87
2024-02-19T16:30:42.386Z,2.50
2024-02-19T16:33:45.557Z,2.83
2024-02-19T16:36:48.598Z,2.80
2024-02-19T16:39:52.536Z,2.87
2024-02-19T16:42:55.713Z,3.30
2024-02-19T16:46:00.263Z,3.10
2024-02-19T16:49:03.443Z,3.67
2024-02-19T16:52:07.219Z,3.17
2024-02-19T16:55:10.743Z,3.30
2024-02-19T16:58:16.553Z,3.80
2024-02-19T17:01:21.351Z,3.63
2024-02-19T17:04:24.748Z,3.60
2024-02-19T17:07:31.098Z,3.20
2024-02-19T17:10:34.271Z,3.37
2024-02-19T17:13:38.223Z,3.60
2024-02-19T17:16:42.800Z,3.40
2024-02-19T17:19:45.976Z,3.20
2024-02-19T17:22:49.115Z,3.17
2024-02-19T17:25:52.116Z,3.30
2024-02-19T17:28:55.215Z,3.20
2024-02-19T17:31:59.594Z,3.20
2024-02-19T17:35:02.703Z,3.43
2024-02-19T17:38:06.085Z,3.43
2024-02-19T17:41:09.196Z,3.43
2024-02-19T17:44:13.223Z,3.50
2024-02-19T17:47:17.690Z,3.77
2024-02-19T17:50:21.290Z,3.63
2024-02-19T17:53:24.318Z,3.60
2024-02-19T17:56:27.625Z,3.70
2024-02-19T17:59:33.921Z,3.63
2024-02-19T18:02:38.423Z,3.70
2024-02-19T18:05:41.606Z,3.93
2024-02-19T18:08:44.726Z,3.70
2024-02-19T18:11:47.871Z,3.83
2024-02-19T18:14:50.966Z,3.70
2024-02-19T18:17:57.981Z,3.73
2024-02-19T18:21:01.275Z,4.20
2024-02-19T18:24:09.225Z,3.90
2024-02-19T18:27:13.291Z,3.90
2024-02-19T18:30:16.558Z,5.20
2024-02-19T18:33:23.251Z,4.00
2024-02-19T18:36:26.891Z,3.60
2024-02-19T18:39:33.285Z,3.90
2024-02-19T18:42:37.001Z,4.20
2024-02-19T18:45:42.313Z,3.73
2024-02-19T18:48:46.786Z,4.20
2024-02-19T18:51:50.361Z,4.27
2024-02-19T18:54:55.636Z,4.50
2024-02-19T18:57:59.792Z,4.00
2024-02-19T19:01:04.713Z,4.40
2024-02-19T19:04:09.384Z,4.20
2024-02-19T19:07:13.273Z,7.50
2024-02-19T19:10:17.102Z,4.97
2024-02-19T19:13:20.294Z,4.97
2024-02-19T19:16:23.567Z,5.00
2024-02-19T19:19:29.762Z,4.77
2024-02-19T19:22:33.080Z,5.30
2024-02-19T19:25:36.587Z,5.53
2024-02-19T19:28:39.795Z,5.60
2024-02-19T19:31:43.670Z,5.27
2024-02-19T19:34:48.343Z,5.40
2024-02-19T19:37:51.975Z,5.97
2024-02-19T19:40:57.715Z,5.90
2024-02-19T19:44:02.584Z,5.67
2024-02-19T19:47:06.055Z,6.20
2024-02-19T19:50:11.586Z,5.90
2024-02-19T19:53:16.503Z,6.60
2024-02-19T19:56:19.610Z,6.73
2024-02-19T19:59:23.050Z,7.37
2024-02-19T20:02:26.211Z,6.87
2024-02-19T20:05:30.939Z,7.03
2024-02-19T20:08:34.123Z,6.77
2024-02-19T20:11:37.337Z,6.77
2024-02-19T20:14:40.659Z,7.23
2024-02-19T20:17:44.006Z,6.53
2024-02-19T20:20:49.601Z,6.90
2024-02-19T20:23:54.713Z,6.83
2024-02-19T20:27:00.489Z,6.53
2024-02-19T20:30:03.776Z,7.33
2024-02-19T20:33:07.657Z,7.73
2024-02-19T20:36:13.333Z,7.17
2024-02-19T20:39:16.442Z,7.37
2024-02-19T20:42:19.552Z,7.60
2024-02-19T20:45:22.889Z,7.67
2024-02-19T20:48:26.123Z,7.97
2024-02-19T20:51:30.740Z,7.43
2024-02-19T20:54:35.170Z,8.00
2024-02-19T20:57:39.058Z,7.73
2024-02-19T21:00:42.186Z,7.83
2024-02-19T21:03:49.670Z,8.83
2024-02-19T21:06:54.901Z,8.37
2024-02-19T21:09:58.740Z,8.50
2024-02-19T21:13:02.180Z,8.27
2024-02-19T21:16:05.729Z,8.77
2024-02-19T21:19:09.148Z,9.03
2024-02-19T21:22:13.989Z,9.27
2024-02-19T21:25:17.368Z,8.97
2024-02-19T21:28:20.761Z,8.83
2024-02-19T21:31:23.947Z,10.30
2024-02-19T21:34:27.258Z,9.00
2024-02-19T21:37:31.933Z,9.93
2024-02-19T21:40:35.314Z,9.40
2024-02-19T21:43:38.574Z,10.83
2024-02-19T21:46:42.708Z,10.47
2024-02-19T21:49:46.372Z,9.87
2024-02-19T21:52:50.934Z,9.80
2024-02-19T21:55:54.028Z,9.67
2024-02-19T21:58:57.164Z,9.70
2024-02-19T22:02:00.573Z,10.37
2024-02-19T22:05:04.872Z,9.70
2024-02-19T22:08:09.806Z,9.17
2024-02-19T22:11:14.496Z,9.13
2024-02-19T22:14:17.658Z,8.80
2024-02-19T22:17:20.713Z,9.70
2024-02-19T22:20:24.020Z,10.40
2024-02-19T22:23:28.746Z,9.47
2024-02-19T22:26:31.797Z,10.27
2024-02-19T22:29:34.873Z,9.60
2024-02-19T22:32:37.946Z,9.37
2024-02-19T22:35:41.074Z,10.90
2024-02-19T22:38:46.609Z,10.23
2024-02-19T22:41:49.656Z,9.87
2024-02-19T22:44:53.414Z,10.40
2024-02-19T22:47:58.357Z,10.10
2024-02-19T22:51:01.569Z,11.07
2024-02-19T22:54:06.238Z,10.80
2024-02-19T22:57:11.510Z,11.30
2024-02-19T23:00:27.031Z,10.47
2024-02-19T23:03:30.495Z,11.53
2024-02-19T23:06:33.823Z,11.27
2024-02-19T23:09:38.398Z,10.77
2024-02-19T23:12:41.912Z,13.00
2024-02-19T23:15:45.041Z,12.93
2024-02-19T23:18:48.267Z,11.60
2024-02-19T23:21:51.492Z,12.43
2024-02-19T23:24:56.063Z,12.20
2024-02-19T23:27:59.698Z,11.43
2024-02-19T23:31:02.891Z,11.97
2024-02-19T23:34:06.289Z,12.13
2024-02-19T23:37:09.766Z,11.50
2024-02-19T23:40:19.044Z,12.63
2024-02-19T23:43:22.241Z,11.83
2024-02-19T23:46:25.780Z,11.80
2024-02-19T23:49:29.331Z,12.60
2024-02-19T23:52:33.104Z,12.60
2024-02-19T23:55:37.637Z,12.90
2024-02-19T23:58:40.721Z,11.47
